createdAt,value
2023-05-24T00:00:33.358Z,98653.22
2023-05-24T00:01:34.917Z,98655.06
2023-05-24T00:02:38.403Z,98654.03
2023-05-24T00:03:40.106Z,98658.88
2023-05-24T00:04:42.490Z,98652.91
2023-05-24T00:05:46.829Z,98657.81
2023-05-24T00:06:48.614Z,98656.25
2023-05-24T00:07:50.875Z,98659.00
2023-05-24T00:08:53.162Z,98658.00
2023-05-24T00:09:54.812Z,98650.84
2023-05-24T00:11:16.747Z,98657.72
2023-05-24T00:12:18.350Z,98655.03
2023-05-24T00:13:19.978Z,98659.09
2023-05-24T00:14:21.870Z,98653.34
2023-05-24T00:15:23.500Z,98654.03
2023-05-24T00:16:25.129Z,98647.19
2023-05-24T00:17:27.629Z,98655.31
2023-05-24T00:18:31.334Z,98655.75
2023-05-24T00:19:32.800Z,98656.03
2023-05-24T00:20:34.397Z,98657.16
2023-05-24T00:21:36.811Z,98650.41
2023-05-24T00:22:39.089Z,98649.63
2023-05-24T00:23:42.064Z,98649.56
2023-05-24T00:24:43.546Z,98655.94
2023-05-24T00:25:45.034Z,98633.84
2023-05-24T00:26:46.582Z,98644.47
2023-05-24T00:27:48.118Z,98638.81
2023-05-24T00:28:49.640Z,98641.13
2023-05-24T00:29:51.124Z,98639.72
2023-05-24T00:30:52.698Z,98644.34
2023-05-24T00:31:54.224Z,98648.69
2023-05-24T00:32:55.915Z,98639.88
2023-05-24T00:33:57.604Z,98642.91
2023-05-24T00:34:59.274Z,98634.84
2023-05-24T00:36:00.814Z,98635.97
2023-05-24T00:37:02.391Z,98638.56
2023-05-24T00:38:03.902Z,98631.81
2023-05-24T00:39:05.942Z,98634.03
2023-05-24T00:40:08.878Z,98636.69
2023-05-24T00:41:11.570Z,98629.81
2023-05-24T00:42:13.118Z,98628.94
2023-05-24T00:43:14.790Z,98623.63
2023-05-24T00:44:16.276Z,98627.69
2023-05-24T00:45:17.886Z,98631.16
2023-05-24T00:46:23.018Z,98625.91
2023-05-24T00:47:24.617Z,98623.97
2023-05-24T00:48:28.856Z,98625.06
2023-05-24T00:49:31.448Z,98619.75
2023-05-24T00:50:33.702Z,98619.78
2023-05-24T00:51:36.684Z,98629.28
2023-05-24T00:52:38.107Z,98619.44
2023-05-24T00:53:41.455Z,98624.63
2023-05-24T00:54:44.094Z,98623.44
2023-05-24T00:55:45.717Z,98618.50
2023-05-24T00:56:48.498Z,98617.25
2023-05-24T00:57:52.428Z,98621.75
2023-05-24T00:58:56.681Z,98625.13
2023-05-24T00:59:59.660Z,98623.97
2023-05-24T01:01:02.941Z,98624.31
2023-05-24T01:02:04.777Z,98620.25
2023-05-24T01:03:06.509Z,98617.53
2023-05-24T01:04:08.301Z,98621.38
2023-05-24T01:05:13.687Z,98621.84
2023-05-24T01:06:16.293Z,98631.91
2023-05-24T01:07:41.752Z,98627.94
2023-05-24T01:09:25.921Z,98628.94
2023-05-24T01:10:45.448Z,98629.75
2023-05-24T01:12:11.695Z,98622.06
2023-05-24T01:13:26.233Z,98625.44
2023-05-24T01:14:38.890Z,98620.84
2023-05-24T01:16:00.093Z,98629.41
2023-05-24T01:17:06.756Z,98632.03
2023-05-24T01:18:31.893Z,98624.91
2023-05-24T01:19:43.237Z,98627.59
2023-05-24T01:20:46.948Z,98629.78
2023-05-24T01:22:09.242Z,98631.44
2023-05-24T01:23:27.883Z,98629.97
2023-05-24T01:24:53.892Z,98631.94
2023-05-24T01:26:03.657Z,98627.28
2023-05-24T01:27:12.221Z,98629.41
2023-05-24T01:28:16.361Z,98634.16
2023-05-24T01:29:18.200Z,98624.13
2023-05-24T01:30:20.654Z,98629.06
2023-05-24T01:31:23.244Z,98627.13
2023-05-24T01:32:24.938Z,98625.63
2023-05-24T01:33:27.158Z,98616.91
2023-05-24T01:34:29.052Z,98624.78
2023-05-24T01:35:30.609Z,98620.94
2023-05-24T01:36:32.190Z,98622.13
2023-05-24T01:37:33.724Z,98618.34
2023-05-24T01:38:35.671Z,98624.28
2023-05-24T01:39:37.378Z,98628.16
2023-05-24T01:40:41.112Z,98620.16
2023-05-24T01:41:59.657Z,98627.59
2023-05-24T01:43:07.817Z,98625.06
2023-05-24T01:44:59.231Z,98624.13
2023-05-24T01:46:08.605Z,98625.66
2023-05-24T01:47:41.411Z,98627.75
2023-05-24T01:48:42.947Z,98627.56
2023-05-24T01:49:50.682Z,98624.94
2023-05-24T01:50:57.039Z,98638.41
2023-05-24T01:52:16.120Z,98635.78
2023-05-24T01:53:19.979Z,98632.19
2023-05-24T01:54:24.756Z,98631.72
2023-05-24T01:55:27.437Z,98625.63
2023-05-24T01:56:29.307Z,98628.69
2023-05-24T01:57:34.345Z,98630.81
2023-05-24T01:58:37.635Z,98630.06
2023-05-24T01:59:43.368Z,98636.00
2023-05-24T02:00:45.695Z,98628.38
2023-05-24T02:01:48.261Z,98628.19
2023-05-24T02:02:50.439Z,98631.25
2023-05-24T02:03:52.427Z,98628.31
2023-05-24T02:04:54.417Z,98640.41
2023-05-24T02:05:55.896Z,98636.44
2023-05-24T02:06:57.690Z,98633.81
2023-05-24T02:07:59.399Z,98633.22
2023-05-24T02:09:01.378Z,98642.97
2023-05-24T02:10:03.245Z,98641.81
2023-05-24T02:11:04.780Z,98644.25
2023-05-24T02:12:07.241Z,98638.19
2023-05-24T02:13:09.205Z,98642.06
2023-05-24T02:14:11.298Z,98640.41
2023-05-24T02:15:14.819Z,98639.34
2023-05-24T02:16:18.169Z,98635.53
2023-05-24T02:17:19.853Z,98635.84
2023-05-24T02:18:22.608Z,98630.19
2023-05-24T02:19:24.920Z,98631.22
2023-05-24T02:20:26.508Z,98636.50
2023-05-24T02:21:28.850Z,98636.78
2023-05-24T02:22:30.372Z,98634.44
2023-05-24T02:23:31.899Z,98638.72
2023-05-24T02:24:33.414Z,98632.25
2023-05-24T02:25:34.901Z,98637.81
2023-05-24T02:26:36.711Z,98637.72
2023-05-24T02:27:38.219Z,98639.88
2023-05-24T02:28:39.737Z,98642.44
2023-05-24T02:29:41.974Z,98637.66
2023-05-24T02:30:44.845Z,98633.56
2023-05-24T02:31:46.965Z,98635.31
2023-05-24T02:32:48.497Z,98640.63
2023-05-24T02:33:50.017Z,98641.09
2023-05-24T02:34:51.627Z,98643.94
2023-05-24T02:35:53.269Z,98641.34
2023-05-24T02:36:56.219Z,98648.44
2023-05-24T02:37:58.760Z,98645.81
2023-05-24T02:39:00.739Z,98647.16
2023-05-24T02:40:02.345Z,98643.97
2023-05-24T02:41:03.858Z,98642.94
2023-05-24T02:42:06.229Z,98640.34
2023-05-24T02:43:09.631Z,98641.88
2023-05-24T02:44:11.769Z,98635.22
2023-05-24T02:45:13.225Z,98637.13
2023-05-24T02:46:15.277Z,98632.94
2023-05-24T02:47:16.800Z,98637.22
2023-05-24T02:48:18.258Z,98635.59
2023-05-24T02:49:19.763Z,98641.09
2023-05-24T02:50:21.253Z,98641.06
2023-05-24T02:51:23.034Z,98634.50
2023-05-24T02:52:24.934Z,98637.09
2023-05-24T02:53:26.425Z,98646.41
2023-05-24T02:54:27.949Z,98635.22
2023-05-24T02:55:29.791Z,98634.09
2023-05-24T02:56:31.724Z,98637.75
2023-05-24T02:57:34.336Z,98630.47
2023-05-24T02:58:40.539Z,98639.22
2023-05-24T02:59:42.789Z,98631.34
2023-05-24T03:00:44.384Z,98633.00
2023-05-24T03:01:46.288Z,98633.47
2023-05-24T03:02:48.132Z,98636.72
2023-05-24T03:03:49.924Z,98637.00
2023-05-24T03:04:51.449Z,98634.72
2023-05-24T03:05:52.964Z,98637.06
2023-05-24T03:06:54.788Z,98628.94
2023-05-24T03:07:56.767Z,98638.78
2023-05-24T03:08:59.229Z,98637.16
2023-05-24T03:10:00.728Z,98636.84
2023-05-24T03:11:02.220Z,98641.88
2023-05-24T03:12:03.928Z,98638.41
2023-05-24T03:13:05.635Z,98640.50
2023-05-24T03:14:07.169Z,98630.56
2023-05-24T03:15:09.484Z,98635.47
2023-05-24T03:16:11.009Z,98632.00
2023-05-24T03:17:12.533Z,98633.59
2023-05-24T03:18:14.044Z,98632.88
2023-05-24T03:19:17.338Z,98633.00
2023-05-24T03:20:21.097Z,98635.28
2023-05-24T03:21:23.851Z,98637.91
2023-05-24T03:22:25.383Z,98640.56
2023-05-24T03:23:26.943Z,98633.34
2023-05-24T03:24:28.489Z,98633.53
2023-05-24T03:25:29.932Z,98638.06
2023-05-24T03:26:31.927Z,98639.63
2023-05-24T03:27:33.418Z,98637.47
2023-05-24T03:28:35.748Z,98635.91
2023-05-24T03:29:37.481Z,98632.66
2023-05-24T03:30:39.265Z,98634.03
2023-05-24T03:31:40.883Z,98630.94
2023-05-24T03:32:42.452Z,98638.41
2023-05-24T03:33:44.095Z,98636.16
2023-05-24T03:34:45.749Z,98635.47
2023-05-24T03:35:47.558Z,98632.84
2023-05-24T03:36:49.081Z,98638.88
2023-05-24T03:37:50.871Z,98637.03
2023-05-24T03:38:52.414Z,98646.38
2023-05-24T03:39:54.477Z,98639.00
2023-05-24T03:40:56.522Z,98643.09
2023-05-24T03:41:58.030Z,98648.13
2023-05-24T03:43:00.669Z,98639.81
2023-05-24T03:44:02.348Z,98635.47
2023-05-24T03:45:05.299Z,98637.34
2023-05-24T03:46:07.132Z,98635.09
2023-05-24T03:47:08.701Z,98636.28
2023-05-24T03:48:10.428Z,98638.13
2023-05-24T03:49:12.094Z,98636.22
2023-05-24T03:50:14.381Z,98639.09
2023-05-24T03:51:15.917Z,98634.09
2023-05-24T03:52:17.390Z,98640.19
2023-05-24T03:53:20.946Z,98633.84
2023-05-24T03:54:24.429Z,98633.59
2023-05-24T03:55:26.027Z,98627.84
2023-05-24T03:56:27.646Z,98629.59
2023-05-24T03:57:29.312Z,98633.69
2023-05-24T03:58:31.110Z,98638.44
2023-05-24T03:59:32.803Z,98640.91
2023-05-24T04:00:34.426Z,98640.16
2023-05-24T04:01:38.719Z,98639.38
2023-05-24T04:02:40.327Z,98633.69
2023-05-24T04:03:41.929Z,98640.19
2023-05-24T04:04:43.529Z,98637.59
2023-05-24T04:05:45.418Z,98641.00
2023-05-24T04:06:47.947Z,98643.75
2023-05-24T04:07:49.628Z,98647.16
2023-05-24T04:08:52.732Z,98650.41
2023-05-24T04:09:54.290Z,98643.72
2023-05-24T04:10:55.974Z,98637.34
2023-05-24T04:11:57.466Z,98643.03
2023-05-24T04:13:00.706Z,98644.06
2023-05-24T04:14:02.865Z,98639.34
2023-05-24T04:15:04.777Z,98643.91
2023-05-24T04:16:06.291Z,98643.56
2023-05-24T04:17:08.489Z,98645.50
2023-05-24T04:18:10.298Z,98644.91
2023-05-24T04:19:11.936Z,98644.09
2023-05-24T04:20:13.477Z,98647.63
2023-05-24T04:21:15.938Z,98645.81
2023-05-24T04:22:18.640Z,98648.88
2023-05-24T04:23:20.127Z,98642.59
2023-05-24T04:24:21.641Z,98645.34
2023-05-24T04:25:23.749Z,98646.50
2023-05-24T04:26:25.218Z,98650.28
2023-05-24T04:27:27.037Z,98641.78
2023-05-24T04:28:28.885Z,98646.00
2023-05-24T04:29:33.300Z,98652.03
2023-05-24T04:30:36.091Z,98649.56
2023-05-24T04:31:37.717Z,98652.34
2023-05-24T04:32:40.623Z,98647.78
2023-05-24T04:33:42.380Z,98650.78
2023-05-24T04:34:46.005Z,98647.94
2023-05-24T04:35:47.817Z,98647.78
2023-05-24T04:36:50.610Z,98656.97
2023-05-24T04:37:52.586Z,98660.91
2023-05-24T04:38:56.137Z,98660.97
2023-05-24T04:39:57.850Z,98652.34
2023-05-24T04:40:59.511Z,98648.28
2023-05-24T04:42:00.983Z,98649.34
2023-05-24T04:43:02.509Z,98661.63
2023-05-24T04:44:04.260Z,98659.28
2023-05-24T04:45:07.097Z,98653.94
2023-05-24T04:46:09.444Z,98650.16
2023-05-24T04:47:12.949Z,98657.03
2023-05-24T04:48:14.403Z,98652.50
2023-05-24T04:49:16.082Z,98656.22
2023-05-24T04:50:17.998Z,98652.84
2023-05-24T04:51:19.913Z,98660.75
2023-05-24T04:52:21.503Z,98653.03
2023-05-24T04:53:23.661Z,98648.94
2023-05-24T04:54:25.154Z,98648.56
2023-05-24T04:55:26.677Z,98649.97
2023-05-24T04:56:28.584Z,98652.31
2023-05-24T04:57:30.334Z,98656.13
2023-05-24T04:58:31.913Z,98648.75
2023-05-24T04:59:33.460Z,98654.44
2023-05-24T05:00:35.041Z,98652.88
2023-05-24T05:01:36.749Z,98646.06
2023-05-24T05:02:38.421Z,98646.41
2023-05-24T05:03:40.163Z,98652.09
2023-05-24T05:04:41.798Z,98654.81
2023-05-24T05:05:43.373Z,98657.50
2023-05-24T05:06:44.986Z,98653.81
2023-05-24T05:07:46.586Z,98648.19
2023-05-24T05:08:50.662Z,98651.41
2023-05-24T05:09:52.499Z,98654.75
2023-05-24T05:10:54.122Z,98657.03
2023-05-24T05:11:55.649Z,98652.03
2023-05-24T05:12:57.447Z,98654.75
2023-05-24T05:13:59.464Z,98659.97
2023-05-24T05:15:01.023Z,98660.13
2023-05-24T05:16:02.868Z,98660.47
2023-05-24T05:17:04.567Z,98667.16
2023-05-24T05:18:06.074Z,98673.28
2023-05-24T05:19:07.798Z,98664.41
2023-05-24T05:20:10.032Z,98664.06
2023-05-24T05:21:11.692Z,98664.06
2023-05-24T05:22:13.470Z,98670.88
2023-05-24T05:23:17.057Z,98662.94
2023-05-24T05:24:28.674Z,98664.69
2023-05-24T05:25:42.823Z,98667.81
2023-05-24T05:27:19.655Z,98672.22
2023-05-24T05:28:30.187Z,98661.19
2023-05-24T05:29:31.963Z,98663.56
2023-05-24T05:30:33.527Z,98671.03
2023-05-24T05:31:35.175Z,98670.25
2023-05-24T05:32:38.206Z,98667.63
2023-05-24T05:33:39.777Z,98664.75
2023-05-24T05:34:41.689Z,98671.16
2023-05-24T05:35:43.148Z,98669.50
2023-05-24T05:36:44.618Z,98670.97
2023-05-24T05:37:46.466Z,98679.72
2023-05-24T05:38:47.925Z,98678.16
2023-05-24T05:39:49.399Z,98676.16
2023-05-24T05:40:50.866Z,98679.13
2023-05-24T05:41:52.396Z,98673.59
2023-05-24T05:42:53.990Z,98674.28
2023-05-24T05:43:55.636Z,98675.09
2023-05-24T05:44:57.465Z,98666.16
2023-05-24T05:46:00.650Z,98671.63
2023-05-24T05:47:03.893Z,98667.66
2023-05-24T05:48:05.581Z,98675.72
2023-05-24T05:49:07.492Z,98680.56
2023-05-24T05:50:09.610Z,98670.38
2023-05-24T05:51:11.314Z,98671.75
2023-05-24T05:52:12.896Z,98675.94
2023-05-24T05:53:15.974Z,98676.44
2023-05-24T05:54:18.776Z,98680.00
2023-05-24T05:55:20.457Z,98682.56
2023-05-24T05:56:21.920Z,98678.50
2023-05-24T05:57:24.442Z,98681.53
2023-05-24T05:58:26.138Z,98680.34
2023-05-24T05:59:27.620Z,98676.41
2023-05-24T06:00:29.092Z,98689.16
2023-05-24T06:01:30.561Z,98679.81
2023-05-24T06:02:32.122Z,98692.00
2023-05-24T06:03:33.833Z,98687.81
2023-05-24T06:04:35.497Z,98686.69
2023-05-24T06:05:37.021Z,98687.34
2023-05-24T06:06:38.600Z,98691.56
2023-05-24T06:07:40.116Z,98695.13
2023-05-24T06:08:41.842Z,98699.03
2023-05-24T06:09:43.337Z,98695.25
2023-05-24T06:10:45.517Z,98700.75
2023-05-24T06:11:47.175Z,98699.13
2023-05-24T06:12:48.690Z,98697.09
2023-05-24T06:13:50.171Z,98701.44
2023-05-24T06:14:52.452Z,98696.22
2023-05-24T06:15:54.681Z,98702.69
2023-05-24T06:16:58.081Z,98701.06
2023-05-24T06:18:02.288Z,98702.59
2023-05-24T06:19:06.672Z,98707.00
2023-05-24T06:20:15.564Z,98699.69
2023-05-24T06:21:17.681Z,98706.75
2023-05-24T06:22:19.857Z,98717.44
2023-05-24T06:23:21.724Z,98707.81
2023-05-24T06:24:23.417Z,98712.28
2023-05-24T06:25:24.952Z,98711.94
2023-05-24T06:26:27.127Z,98714.75
2023-05-24T06:27:28.623Z,98705.03
2023-05-24T06:28:30.133Z,98713.19
2023-05-24T06:29:32.158Z,98714.28
2023-05-24T06:30:33.822Z,98713.56
2023-05-24T06:31:35.566Z,98711.47
2023-05-24T06:32:37.324Z,98706.47
2023-05-24T06:33:39.856Z,98710.91
2023-05-24T06:34:44.850Z,98711.94
2023-05-24T06:35:46.418Z,98718.28
2023-05-24T06:36:48.579Z,98724.19
2023-05-24T06:37:50.130Z,98713.22
2023-05-24T06:38:51.665Z,98720.28
2023-05-24T06:39:53.141Z,98722.69
2023-05-24T06:40:54.659Z,98720.53
2023-05-24T06:41:56.255Z,98716.19
2023-05-24T06:42:58.737Z,98722.13
2023-05-24T06:44:00.607Z,98724.63
2023-05-24T06:45:02.304Z,98728.13
2023-05-24T06:46:03.839Z,98727.34
2023-05-24T06:47:06.093Z,98722.50
2023-05-24T06:48:08.267Z,98721.03
2023-05-24T06:49:10.276Z,98721.72
2023-05-24T06:50:11.845Z,98731.44
2023-05-24T06:51:13.331Z,98724.50
2023-05-24T06:52:14.831Z,98720.84
2023-05-24T06:53:16.329Z,98726.16
2023-05-24T06:54:21.275Z,98721.66
2023-05-24T06:55:23.050Z,98722.97
2023-05-24T06:56:24.506Z,98725.16
2023-05-24T06:57:27.088Z,98730.53
2023-05-24T06:58:28.887Z,98725.84
2023-05-24T06:59:30.769Z,98727.53
2023-05-24T07:00:32.475Z,98731.44
2023-05-24T07:01:34.070Z,98730.38
2023-05-24T07:02:35.646Z,98733.00
2023-05-24T07:03:37.347Z,98727.91
2023-05-24T07:04:41.240Z,98727.59
2023-05-24T07:05:42.912Z,98730.97
2023-05-24T07:06:45.920Z,98737.69
2023-05-24T07:07:48.077Z,98739.31
2023-05-24T07:09:00.903Z,98742.03
2023-05-24T07:10:02.598Z,98738.91
2023-05-24T07:11:04.601Z,98736.38
2023-05-24T07:12:09.406Z,98738.34
2023-05-24T07:13:20.923Z,98737.31
2023-05-24T07:14:26.443Z,98741.97
2023-05-24T07:15:28.500Z,98741.31
2023-05-24T07:16:31.719Z,98742.28
2023-05-24T07:17:33.385Z,98739.09
2023-05-24T07:18:35.013Z,98740.56
2023-05-24T07:19:36.779Z,98739.88
2023-05-24T07:20:38.647Z,98742.94
2023-05-24T07:21:40.306Z,98733.84
2023-05-24T07:22:41.833Z,98742.50
2023-05-24T07:23:43.694Z,98744.22
2023-05-24T07:24:45.308Z,98737.56
2023-05-24T07:25:46.794Z,98741.72
2023-05-24T07:26:49.156Z,98735.09
2023-05-24T07:27:51.438Z,98747.75
2023-05-24T07:28:53.385Z,98740.50
2023-05-24T07:29:54.926Z,98748.09
2023-05-24T07:30:59.218Z,98741.31
2023-05-24T07:32:01.070Z,98745.00
2023-05-24T07:33:03.128Z,98740.34
2023-05-24T07:34:04.664Z,98748.72
2023-05-24T07:35:06.754Z,98746.63
2023-05-24T07:36:09.052Z,98748.09
2023-05-24T07:37:10.551Z,98752.06
2023-05-24T07:38:12.960Z,98750.97
2023-05-24T07:39:16.047Z,98748.09
2023-05-24T07:40:17.821Z,98751.00
2023-05-24T07:41:19.647Z,98748.28
2023-05-24T07:42:21.624Z,98747.63
2023-05-24T07:43:23.495Z,98750.22
2023-05-24T07:44:25.096Z,98752.56
2023-05-24T07:45:26.776Z,98756.34
2023-05-24T07:46:28.324Z,98751.72
2023-05-24T07:47:29.976Z,98757.94
2023-05-24T07:48:32.072Z,98754.94
2023-05-24T07:49:33.639Z,98755.66
2023-05-24T07:50:35.108Z,98746.28
2023-05-24T07:51:36.912Z,98754.63
2023-05-24T07:52:38.883Z,98748.28
2023-05-24T07:53:40.587Z,98745.25
2023-05-24T07:54:42.251Z,98748.78
2023-05-24T07:55:44.748Z,98748.78
2023-05-24T07:56:47.176Z,98743.81
2023-05-24T07:57:48.759Z,98748.53
2023-05-24T07:58:52.150Z,98746.78
2023-05-24T07:59:53.894Z,98744.50
2023-05-24T08:00:55.868Z,98744.81
2023-05-24T08:02:04.022Z,98750.22
2023-05-24T08:03:06.499Z,98747.00
2023-05-24T08:04:09.890Z,98749.53
2023-05-24T08:05:16.583Z,98747.03
2023-05-24T08:06:19.158Z,98744.88
2023-05-24T08:07:24.907Z,98741.72
2023-05-24T08:08:26.489Z,98750.31
2023-05-24T08:09:29.813Z,98745.25
2023-05-24T08:10:31.339Z,98746.00
2023-05-24T08:11:32.910Z,98744.88
2023-05-24T08:12:34.406Z,98742.84
2023-05-24T08:13:36.304Z,98745.56
2023-05-24T08:14:37.887Z,98747.69
2023-05-24T08:15:39.540Z,98747.00
2023-05-24T08:16:41.211Z,98754.13
2023-05-24T08:17:43.036Z,98750.88
2023-05-24T08:18:44.898Z,98753.56
2023-05-24T08:19:46.498Z,98751.91
2023-05-24T08:20:48.062Z,98755.13
2023-05-24T08:21:49.806Z,98754.03
2023-05-24T08:22:52.093Z,98744.75
2023-05-24T08:23:53.882Z,98748.34
2023-05-24T08:24:55.530Z,98750.13
2023-05-24T08:25:58.191Z,98753.06
2023-05-24T08:26:59.749Z,98750.44
2023-05-24T08:28:01.386Z,98753.94
2023-05-24T08:29:04.990Z,98752.16
2023-05-24T08:30:08.433Z,98755.22
2023-05-24T08:31:10.226Z,98759.41
2023-05-24T08:32:12.270Z,98755.22
2023-05-24T08:33:14.222Z,98756.97
2023-05-24T08:34:15.834Z,98762.78
2023-05-24T08:35:21.580Z,98757.00
2023-05-24T08:36:23.573Z,98755.72
2023-05-24T08:37:25.267Z,98755.03
2023-05-24T08:38:26.786Z,98757.75
2023-05-24T08:39:28.273Z,98761.88
2023-05-24T08:40:29.879Z,98752.00
2023-05-24T08:41:37.341Z,98769.88
2023-05-24T08:42:39.681Z,98765.38
2023-05-24T08:43:43.496Z,98765.53
2023-05-24T08:44:52.668Z,98768.28
2023-05-24T08:45:59.084Z,98775.75
2023-05-24T08:47:01.118Z,98760.53
2023-05-24T08:48:04.042Z,98763.44
2023-05-24T08:49:05.732Z,98763.38
2023-05-24T08:50:08.752Z,98763.50
2023-05-24T08:51:11.046Z,98771.34
2023-05-24T08:52:12.807Z,98769.16
2023-05-24T08:53:15.139Z,98770.28
2023-05-24T08:54:16.822Z,98768.41
2023-05-24T08:55:19.455Z,98770.00
2023-05-24T08:56:22.280Z,98765.00
2023-05-24T08:57:32.766Z,98767.75
2023-05-24T08:58:35.112Z,98770.50
2023-05-24T08:59:36.910Z,98770.16
2023-05-24T09:00:38.529Z,98760.16
2023-05-24T09:01:41.578Z,98767.88
2023-05-24T09:02:44.760Z,98772.50
2023-05-24T09:03:47.443Z,98768.66
2023-05-24T09:04:50.665Z,98775.22
2023-05-24T09:05:52.788Z,98771.44
2023-05-24T09:06:56.520Z,98775.16
2023-05-24T09:08:01.154Z,98767.88
2023-05-24T09:09:03.863Z,98762.88
2023-05-24T09:10:07.740Z,98773.06
2023-05-24T09:11:09.701Z,98775.91
2023-05-24T09:12:21.861Z,98779.28
2023-05-24T09:13:31.827Z,98769.75
2023-05-24T09:14:34.208Z,98770.38
2023-05-24T09:15:36.381Z,98771.84
2023-05-24T09:16:38.650Z,98774.91
2023-05-24T09:17:52.260Z,98780.66
2023-05-24T09:19:04.814Z,98780.34
2023-05-24T09:20:09.090Z,98789.09
2023-05-24T09:21:11.729Z,98788.63
2023-05-24T09:22:14.518Z,98774.34
2023-05-24T09:23:17.114Z,98783.50
2023-05-24T09:24:18.651Z,98783.88
2023-05-24T09:25:21.511Z,98783.25
2023-05-24T09:26:24.849Z,98787.56
2023-05-24T09:27:26.577Z,98792.34
2023-05-24T09:28:32.942Z,98797.66
2023-05-24T09:29:37.984Z,98799.03
2023-05-24T09:30:39.544Z,98794.16
2023-05-24T09:31:41.571Z,98794.59
2023-05-24T09:32:57.894Z,98795.97
2023-05-24T09:34:00.038Z,98798.00
2023-05-24T09:35:02.201Z,98797.03
2023-05-24T09:36:05.361Z,98795.56
2023-05-24T09:37:13.447Z,98792.84
2023-05-24T09:38:19.605Z,98790.06
2023-05-24T09:39:21.478Z,98792.78
2023-05-24T09:40:23.739Z,98788.84
2023-05-24T09:41:25.549Z,98791.56
2023-05-24T09:42:28.772Z,98793.50
2023-05-24T09:43:33.231Z,98793.09
2023-05-24T09:44:34.726Z,98790.84
2023-05-24T09:45:47.210Z,98788.63
2023-05-24T09:46:49.155Z,98793.44
2023-05-24T09:47:53.011Z,98782.84
2023-05-24T09:49:03.831Z,98782.25
2023-05-24T09:50:11.710Z,98787.97
2023-05-24T09:51:14.145Z,98785.34
2023-05-24T09:52:16.540Z,98781.59
2023-05-24T09:53:19.667Z,98782.63
2023-05-24T09:54:21.203Z,98790.56
2023-05-24T09:55:23.684Z,98776.41
2023-05-24T09:56:26.719Z,98781.75
2023-05-24T09:57:28.647Z,98788.38
2023-05-24T09:58:33.814Z,98784.03
2023-05-24T09:59:35.472Z,98785.22
2023-05-24T10:00:41.388Z,98783.03
2023-05-24T10:01:43.801Z,98780.88
2023-05-24T10:02:53.435Z,98779.84
2023-05-24T10:03:57.815Z,98777.56
2023-05-24T10:05:02.849Z,98776.13
2023-05-24T10:06:07.753Z,98776.84
2023-05-24T10:07:10.331Z,98771.97
2023-05-24T10:08:12.369Z,98773.22
2023-05-24T10:09:14.528Z,98774.44
2023-05-24T10:10:16.160Z,98772.16
2023-05-24T10:11:18.969Z,98768.66
2023-05-24T10:12:23.383Z,98766.47
2023-05-24T10:13:26.775Z,98769.22
2023-05-24T10:14:31.677Z,98766.97
2023-05-24T10:15:33.165Z,98769.50
2023-05-24T10:16:36.338Z,98766.25
2023-05-24T10:17:38.197Z,98772.84
2023-05-24T10:18:40.009Z,98772.59
2023-05-24T10:19:42.119Z,98771.13
2023-05-24T10:20:45.250Z,98769.63
2023-05-24T10:21:49.476Z,98777.72
2023-05-24T10:22:59.956Z,98765.19
2023-05-24T10:24:03.826Z,98765.16
2023-05-24T10:25:08.739Z,98766.25
2023-05-24T10:26:12.650Z,98767.00
2023-05-24T10:27:19.313Z,98757.56
2023-05-24T10:28:23.656Z,98763.72
2023-05-24T10:29:45.372Z,98769.44
2023-05-24T10:31:04.758Z,98759.56
2023-05-24T10:32:06.774Z,98763.41
2023-05-24T10:33:09.529Z,98763.00
2023-05-24T10:34:12.038Z,98764.50
2023-05-24T10:35:15.123Z,98761.88
2023-05-24T10:36:16.788Z,98761.88
2023-05-24T10:37:18.378Z,98751.97
2023-05-24T10:38:24.898Z,98754.25
2023-05-24T10:39:26.936Z,98748.19
2023-05-24T10:40:29.049Z,98753.47
2023-05-24T10:41:39.785Z,98758.03
2023-05-24T10:42:43.622Z,98756.16
2023-05-24T10:44:00.955Z,98755.78
2023-05-24T10:45:27.757Z,98754.66
2023-05-24T10:46:29.475Z,98760.34
2023-05-24T10:47:31.857Z,98756.91
2023-05-24T10:48:36.323Z,98748.53
2023-05-24T10:49:49.213Z,98748.53
2023-05-24T10:50:51.193Z,98752.72
2023-05-24T10:52:02.228Z,98753.13
2023-05-24T10:53:19.214Z,98751.97
2023-05-24T10:54:27.155Z,98755.78
2023-05-24T10:55:28.729Z,98754.63
2023-05-24T10:56:30.277Z,98753.13
2023-05-24T10:57:33.147Z,98745.13
2023-05-24T10:58:35.758Z,98750.44
2023-05-24T10:59:39.424Z,98748.19
2023-05-24T11:00:45.923Z,98751.97
2023-05-24T11:01:55.541Z,98757.28
2023-05-24T11:03:08.624Z,98752.34
2023-05-24T11:04:12.670Z,98747.06
2023-05-24T11:05:15.417Z,98752.38
2023-05-24T11:06:18.005Z,98758.84
2023-05-24T11:07:19.764Z,98756.53
2023-05-24T11:08:26.306Z,98758.06
2023-05-24T11:09:28.451Z,98758.44
2023-05-24T11:10:31.331Z,98750.06
2023-05-24T11:11:32.729Z,98758.03
2023-05-24T11:12:38.673Z,98750.84
2023-05-24T11:13:41.330Z,98758.03
2023-05-24T11:14:51.308Z,98757.66
2023-05-24T11:15:53.541Z,98758.06
2023-05-24T11:16:56.126Z,98756.50
2023-05-24T11:18:09.896Z,98753.06
2023-05-24T11:19:35.917Z,98753.38
2023-05-24T11:20:37.764Z,98751.53
2023-05-24T11:21:41.330Z,98754.13
2023-05-24T11:22:42.908Z,98753.75
2023-05-24T11:23:44.468Z,98751.44
2023-05-24T11:24:47.440Z,98743.44
2023-05-24T11:25:49.389Z,98743.44
2023-05-24T11:26:51.871Z,98741.47
2023-05-24T11:27:53.796Z,98742.56
2023-05-24T11:28:55.981Z,98745.84
2023-05-24T11:29:59.059Z,98745.50
2023-05-24T11:31:08.521Z,98747.19
2023-05-24T11:32:15.741Z,98749.25
2023-05-24T11:33:18.883Z,98751.91
2023-05-24T11:34:21.909Z,98745.19
2023-05-24T11:35:27.735Z,98746.88
2023-05-24T11:36:30.053Z,98751.63
2023-05-24T11:37:45.546Z,98738.44
2023-05-24T11:38:49.905Z,98742.25
2023-05-24T11:39:53.203Z,98742.28
2023-05-24T11:40:54.767Z,98736.50
2023-05-24T11:41:56.888Z,98736.19
2023-05-24T11:42:58.651Z,98735.66
2023-05-24T11:44:00.162Z,98738.78
2023-05-24T11:45:02.081Z,98746.47
2023-05-24T11:46:06.525Z,98740.41
2023-05-24T11:47:08.764Z,98742.34
2023-05-24T11:48:11.368Z,98731.94
2023-05-24T11:49:17.142Z,98736.84
2023-05-24T11:50:26.677Z,98733.75
2023-05-24T11:51:31.565Z,98734.78
2023-05-24T11:52:33.209Z,98737.03
2023-05-24T11:53:35.355Z,98731.03
2023-05-24T11:54:44.634Z,98737.44
2023-05-24T11:55:59.290Z,98731.97
2023-05-24T11:57:15.570Z,98728.16
2023-05-24T11:58:20.580Z,98733.09
2023-05-24T11:59:31.074Z,98730.81
2023-05-24T12:00:39.617Z,98731.94
2023-05-24T12:01:42.697Z,98725.81
2023-05-24T12:02:46.955Z,98732.59
2023-05-24T12:03:56.147Z,98730.09
2023-05-24T12:05:12.969Z,98722.31
2023-05-24T12:06:18.632Z,98717.56
2023-05-24T12:07:30.394Z,98724.34
2023-05-24T12:08:32.222Z,98720.63
2023-05-24T12:09:33.871Z,98721.84
2023-05-24T12:10:37.335Z,98719.78
2023-05-24T12:11:43.036Z,98723.06
2023-05-24T12:12:46.267Z,98725.28
2023-05-24T12:13:48.164Z,98721.19
2023-05-24T12:14:49.684Z,98730.41
2023-05-24T12:15:56.615Z,98716.72
2023-05-24T12:16:59.396Z,98712.44
2023-05-24T12:18:01.149Z,98713.38
2023-05-24T12:19:09.455Z,98706.28
2023-05-24T12:20:14.304Z,98707.44
2023-05-24T12:21:16.488Z,98714.78
2023-05-24T12:22:17.973Z,98721.06
2023-05-24T12:23:23.255Z,98721.34
2023-05-24T12:24:26.346Z,98710.13
2023-05-24T12:25:27.846Z,98712.19
2023-05-24T12:26:29.696Z,98713.88
2023-05-24T12:27:31.500Z,98708.34